createdAt,value
2023-04-20T00:00:11.779Z,5.00
2023-04-20T00:01:17.995Z,4.80
2023-04-20T00:02:21.988Z,4.57
2023-04-20T00:03:24.516Z,4.87
2023-04-20T00:04:27.063Z,4.80
2023-04-20T00:05:30.723Z,4.13
2023-04-20T00:06:34.333Z,4.43
2023-04-20T00:07:37.079Z,4.23
2023-04-20T00:08:39.290Z,4.30
2023-04-20T00:09:41.559Z,4.30
2023-04-20T00:10:45.393Z,4.47
2023-04-20T00:11:48.072Z,4.43
2023-04-20T00:12:50.410Z,4.40
2023-04-20T00:13:52.725Z,4.60
2023-04-20T00:14:56.778Z,4.40
2023-04-20T00:15:59.125Z,4.70
2023-04-20T00:17:02.616Z,4.73
2023-04-20T00:18:05.082Z,4.70
2023-04-20T00:19:08.402Z,5.03
2023-04-20T00:20:13.378Z,4.97
2023-04-20T00:21:15.750Z,4.90
2023-04-20T00:22:18.028Z,4.70
2023-04-20T00:23:20.324Z,4.50
2023-04-20T00:24:24.027Z,4.83
2023-04-20T00:25:26.361Z,4.50
2023-04-20T00:26:28.650Z,4.60
2023-04-20T00:27:31.626Z,4.07
2023-04-20T00:28:34.105Z,4.87
2023-04-20T00:29:36.380Z,4.50
2023-04-20T00:30:40.355Z,4.10
2023-04-20T00:31:42.732Z,4.40
2023-04-20T00:32:45.109Z,3.93
2023-04-20T00:33:49.045Z,4.03
2023-04-20T00:34:51.351Z,3.80
2023-04-20T00:35:54.471Z,4.00
2023-04-20T00:36:59.210Z,4.00
2023-04-20T00:38:01.444Z,4.30
2023-04-20T00:39:05.959Z,4.27
2023-04-20T00:40:09.697Z,4.43
2023-04-20T00:41:12.172Z,4.20
2023-04-20T00:42:14.452Z,4.40
2023-04-20T00:43:16.751Z,3.90
2023-04-20T00:44:19.041Z,4.00
2023-04-20T00:45:22.375Z,4.50
2023-04-20T00:46:24.985Z,4.13
2023-04-20T00:47:27.388Z,4.50
2023-04-20T00:48:29.859Z,4.27
2023-04-20T00:49:33.025Z,4.00
2023-04-20T00:50:36.075Z,4.40
2023-04-20T00:51:38.617Z,4.23
2023-04-20T00:52:41.821Z,4.33
2023-04-20T00:53:44.942Z,4.33
2023-04-20T00:54:48.013Z,4.27
2023-04-20T00:55:53.723Z,4.07
2023-04-20T00:56:58.250Z,4.10
2023-04-20T00:58:00.751Z,4.20
2023-04-20T00:59:02.985Z,4.03
2023-04-20T01:00:07.673Z,4.30
2023-04-20T01:01:15.485Z,4.30
2023-04-20T01:02:18.623Z,4.27
2023-04-20T01:03:21.675Z,4.53
2023-04-20T01:04:24.548Z,4.10
2023-04-20T01:05:27.350Z,4.60
2023-04-20T01:06:31.039Z,4.53
2023-04-20T01:07:33.293Z,4.17
2023-04-20T01:08:36.613Z,4.47
2023-04-20T01:09:39.734Z,4.60
2023-04-20T01:10:42.207Z,4.30
2023-04-20T01:11:44.564Z,4.50
2023-04-20T01:12:51.812Z,4.23
2023-04-20T01:13:54.125Z,4.57
2023-04-20T01:14:57.662Z,4.80
2023-04-20T01:16:03.850Z,4.63
2023-04-20T01:17:06.371Z,4.70
2023-04-20T01:18:09.824Z,4.60
2023-04-20T01:19:14.035Z,4.33
2023-04-20T01:20:16.709Z,4.77
2023-04-20T01:21:21.640Z,4.73
2023-04-20T01:22:24.949Z,4.60
2023-04-20T01:23:27.190Z,4.53
2023-04-20T01:24:30.934Z,4.87
2023-04-20T01:25:34.934Z,4.73
2023-04-20T01:26:37.266Z,4.10
2023-04-20T01:27:39.520Z,4.23
2023-04-20T01:28:42.994Z,4.30
2023-04-20T01:29:45.850Z,4.47
2023-04-20T01:30:48.460Z,4.30
2023-04-20T01:31:50.806Z,4.70
2023-04-20T01:32:54.263Z,4.37
2023-04-20T01:33:58.326Z,4.53
2023-04-20T01:35:01.760Z,4.50
2023-04-20T01:36:05.804Z,4.00
2023-04-20T01:37:08.475Z,4.27
2023-04-20T01:38:10.855Z,4.30
2023-04-20T01:39:14.463Z,4.03
2023-04-20T01:40:16.851Z,4.10
2023-04-20T01:41:21.148Z,4.20
2023-04-20T01:42:24.555Z,4.50
2023-04-20T01:43:27.687Z,4.80
2023-04-20T01:44:30.054Z,4.50
2023-04-20T01:45:32.389Z,4.40
2023-04-20T01:46:38.617Z,4.30
2023-04-20T01:47:42.564Z,4.00
2023-04-20T01:48:44.898Z,4.70
2023-04-20T01:49:49.433Z,4.60
2023-04-20T01:50:52.574Z,4.77
2023-04-20T01:51:55.889Z,4.40
2023-04-20T01:52:58.163Z,4.60
2023-04-20T01:54:01.486Z,4.60
2023-04-20T01:55:04.184Z,4.30
2023-04-20T01:56:06.685Z,4.40
2023-04-20T01:57:08.920Z,4.50
2023-04-20T01:58:13.186Z,4.43
2023-04-20T01:59:15.658Z,4.33
2023-04-20T02:00:18.573Z,4.47
2023-04-20T02:01:21.068Z,4.40
2023-04-20T02:02:23.534Z,4.10
2023-04-20T02:03:26.111Z,4.70
2023-04-20T02:04:31.063Z,4.27
2023-04-20T02:05:33.693Z,4.33
2023-04-20T02:06:36.133Z,4.40
2023-04-20T02:07:38.537Z,4.40
2023-04-20T02:08:42.070Z,4.80
2023-04-20T02:09:44.363Z,4.30
2023-04-20T02:10:46.764Z,4.00
2023-04-20T02:11:49.021Z,4.40
2023-04-20T02:12:51.424Z,4.57
2023-04-20T02:13:54.292Z,4.37
2023-04-20T02:14:56.575Z,4.43
2023-04-20T02:15:58.950Z,4.53
2023-04-20T02:17:01.324Z,4.50
2023-04-20T02:18:05.000Z,4.47
2023-04-20T02:19:07.228Z,4.70
2023-04-20T02:20:11.839Z,4.53
2023-04-20T02:21:14.228Z,4.67
2023-04-20T02:22:16.605Z,4.53
2023-04-20T02:23:19.158Z,4.70
2023-04-20T02:24:21.723Z,4.60
2023-04-20T02:25:24.079Z,4.63
2023-04-20T02:26:27.077Z,4.67
2023-04-20T02:27:29.356Z,4.70
2023-04-20T02:28:33.666Z,4.40
2023-04-20T02:29:36.022Z,4.83
2023-04-20T02:30:38.278Z,4.77
2023-04-20T02:31:40.656Z,4.40
2023-04-20T02:32:44.053Z,4.37
2023-04-20T02:33:47.976Z,4.90
2023-04-20T02:34:50.186Z,4.87
2023-04-20T02:35:52.980Z,4.90
2023-04-20T02:36:55.243Z,4.60
2023-04-20T02:37:57.542Z,4.67
2023-04-20T02:38:59.764Z,4.80
2023-04-20T02:40:02.504Z,5.20
2023-04-20T02:41:05.318Z,4.70
2023-04-20T02:42:07.701Z,4.57
2023-04-20T02:43:10.880Z,5.10
2023-04-20T02:44:14.771Z,4.53
2023-04-20T02:45:17.380Z,4.53
2023-04-20T02:46:23.862Z,5.00
2023-04-20T02:47:26.337Z,4.60
2023-04-20T02:48:30.120Z,4.47
2023-04-20T02:49:34.591Z,4.57
2023-04-20T02:50:38.545Z,4.73
2023-04-20T02:52:00.884Z,4.57
2023-04-20T02:53:03.289Z,4.20
2023-04-20T02:54:09.719Z,4.60
2023-04-20T02:55:12.210Z,4.37
2023-04-20T02:56:16.060Z,4.57
2023-04-20T02:57:20.573Z,4.70
2023-04-20T02:58:23.923Z,4.93
2023-04-20T02:59:47.077Z,4.70
2023-04-20T03:01:03.806Z,4.70
2023-04-20T03:02:06.822Z,4.80
2023-04-20T03:03:10.615Z,4.63
2023-04-20T03:04:13.524Z,4.63
2023-04-20T03:05:24.890Z,4.43
2023-04-20T03:06:38.714Z,4.97
2023-04-20T03:07:42.208Z,5.10
2023-04-20T03:08:46.784Z,4.90
2023-04-20T03:10:09.485Z,5.10
2023-04-20T03:11:33.363Z,5.60
2023-04-20T03:12:36.585Z,5.30
2023-04-20T03:13:47.566Z,5.50
2023-04-20T03:14:56.343Z,6.10
2023-04-20T03:16:13.711Z,5.60
2023-04-20T03:17:19.898Z,5.87
2023-04-20T03:18:22.173Z,6.10
2023-04-20T03:19:24.730Z,5.73
2023-04-20T03:20:27.456Z,6.20
2023-04-20T03:21:29.691Z,6.07
2023-04-20T03:22:31.924Z,6.23
2023-04-20T03:23:36.389Z,6.70
2023-04-20T03:24:40.915Z,6.50
2023-04-20T03:25:53.938Z,6.33
2023-04-20T03:27:07.758Z,6.13
2023-04-20T03:28:21.830Z,6.57
2023-04-20T03:29:25.511Z,6.17
2023-04-20T03:30:28.258Z,6.50
2023-04-20T03:31:37.182Z,6.30
2023-04-20T03:32:39.607Z,6.07
2023-04-20T03:33:43.470Z,6.17
2023-04-20T03:34:45.826Z,6.20
2023-04-20T03:35:50.980Z,6.10
2023-04-20T03:36:53.561Z,6.10
2023-04-20T03:37:55.966Z,6.27
2023-04-20T03:38:59.544Z,6.27
2023-04-20T03:40:02.099Z,6.60
2023-04-20T03:41:08.356Z,6.23
2023-04-20T03:42:10.661Z,6.53
2023-04-20T03:43:13.109Z,6.50
2023-04-20T03:44:15.739Z,6.50
2023-04-20T03:45:19.444Z,6.60
2023-04-20T03:46:23.203Z,6.40
2023-04-20T03:47:25.904Z,6.80
2023-04-20T03:48:28.272Z,6.73
2023-04-20T03:49:30.873Z,6.63
2023-04-20T03:50:35.063Z,7.03
2023-04-20T03:51:38.549Z,6.80
2023-04-20T03:52:41.397Z,6.63
2023-04-20T03:53:45.503Z,6.83
2023-04-20T03:54:49.113Z,7.20
2023-04-20T03:55:52.507Z,7.10
2023-04-20T03:56:57.003Z,6.90
2023-04-20T03:58:02.335Z,7.07
2023-04-20T03:59:13.370Z,6.87
2023-04-20T04:00:18.445Z,7.30
2023-04-20T04:01:21.772Z,7.13
2023-04-20T04:02:25.111Z,7.10
2023-04-20T04:03:29.223Z,7.50
2023-04-20T04:04:32.355Z,7.13
2023-04-20T04:05:34.890Z,7.63
2023-04-20T04:06:38.910Z,7.33
2023-04-20T04:07:43.608Z,7.73
2023-04-20T04:08:47.500Z,7.90
2023-04-20T04:09:49.773Z,7.00
2023-04-20T04:10:52.316Z,7.60
2023-04-20T04:11:55.497Z,7.63
2023-04-20T04:13:01.394Z,7.20
2023-04-20T04:14:05.427Z,7.90
2023-04-20T04:15:10.996Z,7.10
2023-04-20T04:16:21.566Z,7.80
2023-04-20T04:17:24.966Z,8.00
2023-04-20T04:18:32.686Z,7.70
2023-04-20T04:19:39.568Z,8.13
2023-04-20T04:20:42.068Z,8.37
2023-04-20T04:21:46.332Z,8.40
2023-04-20T04:22:50.101Z,8.00
2023-04-20T04:24:04.729Z,8.57
2023-04-20T04:25:18.872Z,8.87
2023-04-20T04:26:24.854Z,8.80
2023-04-20T04:27:29.994Z,9.13
2023-04-20T04:28:32.301Z,8.87
2023-04-20T04:29:44.907Z,8.60
2023-04-20T04:30:52.583Z,8.27
2023-04-20T04:31:54.925Z,8.60
2023-04-20T04:32:57.740Z,7.83
2023-04-20T04:34:02.667Z,8.00
2023-04-20T04:35:11.567Z,8.07
2023-04-20T04:36:17.708Z,8.43
2023-04-20T04:37:20.130Z,8.87
2023-04-20T04:38:27.348Z,8.47
2023-04-20T04:39:29.936Z,8.90
2023-04-20T04:40:48.337Z,9.00
2023-04-20T04:41:52.184Z,9.10
2023-04-20T04:43:02.984Z,8.30
2023-04-20T04:44:06.201Z,8.77
2023-04-20T04:45:10.524Z,8.67
2023-04-20T04:46:16.598Z,8.53
2023-04-20T04:47:20.154Z,8.47
2023-04-20T04:48:23.366Z,8.70
2023-04-20T04:49:26.857Z,9.20
2023-04-20T04:50:29.115Z,9.00
2023-04-20T04:51:31.924Z,8.33
2023-04-20T04:52:34.257Z,8.97
2023-04-20T04:53:37.233Z,9.27
2023-04-20T04:54:39.812Z,9.03
2023-04-20T04:55:43.191Z,9.67
2023-04-20T04:56:45.478Z,9.10
2023-04-20T04:57:47.853Z,8.97
2023-04-20T04:58:50.168Z,9.03
2023-04-20T04:59:52.791Z,9.07
2023-04-20T05:00:55.142Z,9.33
2023-04-20T05:01:57.642Z,9.70
2023-04-20T05:03:00.134Z,9.30
2023-04-20T05:04:03.127Z,9.27
2023-04-20T05:05:07.568Z,9.43
2023-04-20T05:06:11.811Z,9.20
2023-04-20T05:07:15.702Z,9.50
2023-04-20T05:08:19.134Z,9.60
2023-04-20T05:09:21.684Z,9.50
2023-04-20T05:10:23.943Z,9.97
2023-04-20T05:11:27.106Z,9.37
2023-04-20T05:12:33.121Z,9.27
2023-04-20T05:13:35.627Z,9.07
2023-04-20T05:14:37.999Z,8.63
2023-04-20T05:15:41.671Z,8.90
2023-04-20T05:16:46.007Z,8.77
2023-04-20T05:17:49.996Z,8.87
2023-04-20T05:18:52.391Z,9.03
2023-04-20T05:19:54.749Z,8.93
2023-04-20T05:20:57.117Z,9.50
2023-04-20T05:21:59.476Z,9.47
2023-04-20T05:23:02.141Z,9.37
2023-04-20T05:24:04.718Z,8.83
2023-04-20T05:25:08.630Z,9.77
2023-04-20T05:26:11.040Z,8.93
2023-04-20T05:27:14.559Z,9.07
2023-04-20T05:28:16.956Z,8.97
2023-04-20T05:29:19.545Z,9.13
2023-04-20T05:30:22.336Z,9.67
2023-04-20T05:31:27.868Z,9.23
2023-04-20T05:32:30.686Z,8.97
2023-04-20T05:33:32.962Z,9.77
2023-04-20T05:34:35.280Z,9.47
2023-04-20T05:35:37.691Z,9.73
2023-04-20T05:36:40.498Z,9.50
2023-04-20T05:37:42.800Z,9.50
2023-04-20T05:38:45.141Z,10.17
2023-04-20T05:39:47.536Z,9.57
2023-04-20T05:40:50.614Z,9.63
2023-04-20T05:41:52.958Z,9.83
2023-04-20T05:42:55.263Z,9.77
2023-04-20T05:43:58.728Z,10.17
2023-04-20T05:45:01.664Z,9.50
2023-04-20T05:46:04.217Z,10.17
2023-04-20T05:47:08.758Z,9.20
2023-04-20T05:48:12.534Z,8.87
2023-04-20T05:49:14.779Z,9.00
2023-04-20T05:50:17.108Z,10.00
2023-04-20T05:51:19.463Z,9.40
2023-04-20T05:52:21.790Z,10.00
2023-04-20T05:53:24.540Z,9.43
2023-04-20T05:54:28.876Z,9.37
2023-04-20T05:55:31.113Z,9.50
2023-04-20T05:56:33.755Z,9.43
2023-04-20T05:57:42.772Z,9.77
2023-04-20T05:58:45.591Z,10.87
2023-04-20T05:59:47.933Z,11.20
2023-04-20T06:00:50.206Z,10.83
2023-04-20T06:01:54.228Z,10.43
2023-04-20T06:02:56.647Z,10.47
2023-04-20T06:03:59.374Z,10.63
2023-04-20T06:05:01.907Z,10.53
2023-04-20T06:06:04.698Z,10.77
2023-04-20T06:07:07.176Z,10.37
2023-04-20T06:08:10.183Z,10.93
2023-04-20T06:09:13.940Z,10.73
2023-04-20T06:10:16.192Z,10.10
2023-04-20T06:11:18.660Z,10.97
2023-04-20T06:12:21.159Z,10.37
2023-04-20T06:13:23.610Z,9.77
2023-04-20T06:14:26.010Z,10.07
2023-04-20T06:15:28.515Z,9.77
2023-04-20T06:16:33.886Z,10.17
2023-04-20T06:17:37.712Z,9.90
2023-04-20T06:18:40.069Z,10.73
2023-04-20T06:19:43.892Z,9.17
2023-04-20T06:20:46.432Z,9.70
2023-04-20T06:21:48.838Z,9.80
2023-04-20T06:22:52.080Z,9.73
2023-04-20T06:23:54.354Z,9.70
2023-04-20T06:24:56.742Z,10.10
2023-04-20T06:26:00.146Z,9.80
2023-04-20T06:27:02.959Z,9.80
2023-04-20T06:28:06.475Z,9.90
2023-04-20T06:29:08.738Z,10.73
2023-04-20T06:30:11.913Z,9.73
2023-04-20T06:31:14.340Z,9.90
2023-04-20T06:32:16.940Z,9.63
2023-04-20T06:33:19.689Z,10.03
2023-04-20T06:34:21.985Z,10.37
2023-04-20T06:35:24.414Z,9.67
2023-04-20T06:36:29.034Z,9.87
2023-04-20T06:37:31.673Z,9.83
2023-04-20T06:38:35.006Z,9.97
2023-04-20T06:39:37.464Z,9.87
2023-04-20T06:40:39.731Z,10.17
2023-04-20T06:41:42.031Z,10.07
2023-04-20T06:42:44.878Z,10.20
2023-04-20T06:43:48.139Z,10.40
2023-04-20T06:44:51.035Z,9.67
2023-04-20T06:45:53.413Z,9.77
2023-04-20T06:46:56.247Z,10.07
2023-04-20T06:47:58.639Z,9.43
2023-04-20T06:49:01.470Z,9.77
2023-04-20T06:50:11.852Z,9.77
2023-04-20T06:51:14.619Z,10.67
2023-04-20T06:52:16.918Z,10.13
2023-04-20T06:53:21.995Z,10.60
2023-04-20T06:54:24.892Z,10.47
2023-04-20T06:55:27.327Z,10.27
2023-04-20T06:56:30.631Z,9.93
2023-04-20T06:57:34.012Z,10.53
2023-04-20T06:58:36.488Z,10.30
2023-04-20T06:59:38.849Z,10.03
2023-04-20T07:00:41.565Z,10.43
2023-04-20T07:01:44.069Z,10.47
2023-04-20T07:02:48.360Z,10.43
2023-04-20T07:03:51.834Z,10.57
2023-04-20T07:05:01.024Z,10.93
2023-04-20T07:06:03.584Z,10.40
2023-04-20T07:07:05.980Z,10.97
2023-04-20T07:08:09.695Z,11.57
2023-04-20T07:09:12.069Z,11.47
2023-04-20T07:10:16.336Z,11.93
2023-04-20T07:11:18.782Z,11.53
2023-04-20T07:12:22.319Z,11.03
2023-04-20T07:13:24.629Z,11.00
2023-04-20T07:14:28.155Z,10.37
2023-04-20T07:15:30.667Z,11.53
2023-04-20T07:16:33.013Z,11.37
2023-04-20T07:17:35.802Z,11.40
2023-04-20T07:18:38.219Z,10.80
2023-04-20T07:19:40.493Z,11.03
2023-04-20T07:20:44.071Z,10.87
2023-04-20T07:21:47.669Z,10.67
2023-04-20T07:22:51.324Z,10.90
2023-04-20T07:23:53.693Z,10.80
2023-04-20T07:24:56.754Z,10.63
2023-04-20T07:26:00.319Z,11.03
2023-04-20T07:27:03.252Z,10.50
2023-04-20T07:28:05.668Z,11.27
2023-04-20T07:29:07.940Z,11.37
2023-04-20T07:30:11.513Z,11.00
2023-04-20T07:31:13.753Z,10.90
2023-04-20T07:32:16.271Z,11.53
2023-04-20T07:33:21.140Z,11.37
2023-04-20T07:34:23.748Z,11.43
2023-04-20T07:35:27.051Z,11.50
2023-04-20T07:36:30.350Z,11.67
2023-04-20T07:37:33.791Z,11.67
2023-04-20T07:38:36.239Z,11.00
2023-04-20T07:39:38.583Z,10.93
2023-04-20T07:40:43.566Z,11.30
2023-04-20T07:41:46.304Z,11.47
2023-04-20T07:42:50.095Z,11.50
2023-04-20T07:43:53.348Z,11.53
2023-04-20T07:44:58.354Z,12.17
2023-04-20T07:46:00.662Z,11.37
2023-04-20T07:47:03.706Z,10.97
2023-04-20T07:48:08.621Z,11.23
2023-04-20T07:49:12.318Z,11.23
2023-04-20T07:50:16.317Z,11.47
2023-04-20T07:51:18.550Z,11.47
2023-04-20T07:52:20.916Z,10.53
2023-04-20T07:53:23.203Z,11.07
2023-04-20T07:54:25.836Z,11.27
2023-04-20T07:55:29.711Z,11.00
2023-04-20T07:56:32.457Z,10.67
2023-04-20T07:57:38.140Z,10.80
2023-04-20T07:58:41.621Z,10.87
2023-04-20T07:59:49.115Z,11.27
2023-04-20T08:00:51.368Z,10.80
2023-04-20T08:01:58.641Z,10.70
2023-04-20T08:03:01.269Z,11.03
2023-04-20T08:04:04.980Z,10.77
2023-04-20T08:05:10.512Z,10.60
2023-04-20T08:06:13.483Z,9.80
2023-04-20T08:07:15.966Z,11.33
2023-04-20T08:08:18.232Z,10.90
2023-04-20T08:09:21.047Z,10.20
2023-04-20T08:10:23.795Z,11.37
2023-04-20T08:11:27.482Z,10.87
2023-04-20T08:12:29.806Z,10.83
2023-04-20T08:13:33.417Z,11.00
2023-04-20T08:14:35.760Z,10.97
2023-04-20T08:15:38.142Z,10.60
2023-04-20T08:16:40.591Z,11.37
2023-04-20T08:17:45.024Z,10.93
2023-04-20T08:18:47.341Z,10.57
2023-04-20T08:19:49.979Z,11.40
2023-04-20T08:20:52.572Z,11.07
2023-04-20T08:21:55.053Z,11.33
2023-04-20T08:22:57.473Z,11.30
2023-04-20T08:23:59.826Z,12.00
2023-04-20T08:25:02.451Z,11.80
2023-04-20T08:26:05.022Z,11.80
2023-04-20T08:27:09.010Z,11.47
2023-04-20T08:28:19.258Z,12.23
2023-04-20T08:29:26.858Z,11.03
2023-04-20T08:30:29.141Z,11.30
2023-04-20T08:31:32.377Z,11.43
2023-04-20T08:32:35.056Z,11.60
2023-04-20T08:33:37.625Z,10.60
2023-04-20T08:34:40.245Z,11.40
2023-04-20T08:35:42.550Z,12.37
2023-04-20T08:36:45.266Z,11.60
2023-04-20T08:37:47.526Z,11.67
2023-04-20T08:39:07.928Z,11.83
2023-04-20T08:40:12.781Z,11.40
2023-04-20T08:41:15.426Z,11.87
2023-04-20T08:42:17.814Z,11.93
2023-04-20T08:43:22.111Z,11.93
2023-04-20T08:44:25.029Z,12.30
2023-04-20T08:45:27.501Z,12.13
2023-04-20T08:46:30.530Z,12.50
2023-04-20T08:47:34.682Z,12.10
2023-04-20T08:48:38.291Z,12.00
2023-04-20T08:49:40.567Z,11.57
2023-04-20T08:50:44.398Z,12.10
2023-04-20T08:51:47.858Z,11.77
2023-04-20T08:52:50.193Z,12.73
2023-04-20T08:53:53.225Z,12.03
2023-04-20T08:54:57.848Z,12.13
2023-04-20T08:56:00.555Z,11.90
2023-04-20T08:57:02.991Z,12.33
2023-04-20T08:58:05.295Z,12.53
2023-04-20T08:59:10.583Z,11.97
2023-04-20T09:00:14.149Z,13.33
2023-04-20T09:01:34.617Z,13.33
2023-04-20T09:02:49.259Z,12.47
2023-04-20T09:03:51.937Z,12.87
2023-04-20T09:05:05.313Z,13.03
2023-04-20T09:06:16.284Z,13.27
2023-04-20T09:07:21.680Z,13.40
2023-04-20T09:08:35.161Z,12.97
2023-04-20T09:09:37.943Z,13.43
2023-04-20T09:10:44.258Z,12.67
2023-04-20T09:11:47.884Z,12.93
2023-04-20T09:12:51.954Z,12.50
2023-04-20T09:14:17.031Z,12.40
2023-04-20T09:15:30.996Z,12.97
2023-04-20T09:16:35.776Z,12.67
2023-04-20T09:17:42.122Z,12.80
2023-04-20T09:18:56.402Z,12.33
2023-04-20T09:19:58.811Z,12.70
2023-04-20T09:21:11.059Z,12.73
2023-04-20T09:22:13.625Z,12.70
2023-04-20T09:23:18.724Z,12.53
2023-04-20T09:24:22.495Z,13.03
2023-04-20T09:25:28.894Z,13.03
2023-04-20T09:26:35.516Z,12.10
2023-04-20T09:27:37.992Z,12.60
2023-04-20T09:28:40.293Z,12.33
2023-04-20T09:29:42.805Z,13.43
2023-04-20T09:30:50.779Z,13.07
2023-04-20T09:31:53.147Z,13.20
2023-04-20T09:33:03.755Z,13.50
2023-04-20T09:34:06.736Z,13.43
2023-04-20T09:35:09.474Z,13.43
2023-04-20T09:36:11.940Z,12.73
2023-04-20T09:37:17.994Z,13.30
2023-04-20T09:38:27.358Z,13.37
2023-04-20T09:39:30.769Z,13.30
2023-04-20T09:40:33.893Z,13.07
2023-04-20T09:41:39.124Z,13.37
2023-04-20T09:42:42.986Z,13.30
2023-04-20T09:43:45.820Z,13.47
2023-04-20T09:44:49.430Z,13.23
2023-04-20T09:45:52.314Z,13.77
2023-04-20T09:46:54.841Z,13.70
2023-04-20T09:47:57.892Z,13.30
2023-04-20T09:49:01.681Z,13.80
2023-04-20T09:50:19.545Z,12.97
2023-04-20T09:51:28.463Z,13.73
2023-04-20T09:52:30.862Z,13.43
2023-04-20T09:53:35.093Z,14.10
2023-04-20T09:54:38.405Z,13.13
2023-04-20T09:55:45.761Z,13.73
2023-04-20T09:56:49.374Z,13.37
2023-04-20T09:57:54.051Z,14.10
2023-04-20T09:58:58.779Z,14.70
2023-04-20T10:00:02.394Z,13.37
2023-04-20T10:01:04.707Z,14.13
2023-04-20T10:02:12.733Z,14.37
2023-04-20T10:03:19.173Z,14.30
2023-04-20T10:04:21.788Z,14.33
2023-04-20T10:05:37.359Z,13.77
2023-04-20T10:06:52.902Z,13.63
2023-04-20T10:08:00.854Z,13.47
2023-04-20T10:09:06.207Z,14.20
2023-04-20T10:10:10.230Z,13.87
2023-04-20T10:11:12.525Z,13.27
2023-04-20T10:12:15.229Z,12.83
2023-04-20T10:13:19.828Z,13.47
2023-04-20T10:14:24.867Z,13.17
2023-04-20T10:15:38.190Z,13.83
2023-04-20T10:16:40.486Z,13.23
2023-04-20T10:17:43.026Z,13.47
2023-04-20T10:18:58.166Z,13.60
2023-04-20T10:20:00.495Z,12.47
2023-04-20T10:21:09.978Z,13.17
2023-04-20T10:22:25.184Z,13.13
2023-04-20T10:23:27.520Z,12.57
2023-04-20T10:24:31.051Z,13.67
2023-04-20T10:25:33.296Z,13.47
2023-04-20T10:26:40.258Z,12.97
2023-04-20T10:27:52.890Z,13.37
2023-04-20T10:28:55.425Z,12.70
2023-04-20T10:30:10.087Z,16.23
2023-04-20T10:31:14.105Z,13.57
2023-04-20T10:32:22.991Z,15.20
2023-04-20T10:33:25.307Z,15.97
2023-04-20T10:34:34.598Z,14.93
2023-04-20T10:35:57.946Z,17.40
2023-04-20T10:37:11.472Z,14.53
2023-04-20T10:38:13.862Z,13.73
2023-04-20T10:39:23.020Z,14.03
2023-04-20T10:40:29.299Z,13.30
2023-04-20T10:41:31.782Z,12.67
2023-04-20T10:42:44.610Z,13.13
2023-04-20T10:43:47.091Z,14.07
2023-04-20T10:44:51.170Z,13.20
2023-04-20T10:45:53.698Z,12.53
2023-04-20T10:46:56.752Z,13.23
2023-04-20T10:47:59.125Z,12.20
2023-04-20T10:49:02.320Z,12.33
2023-04-20T10:50:11.317Z,14.50
2023-04-20T10:51:13.850Z,13.40
2023-04-20T10:52:16.113Z,12.80
2023-04-20T10:53:23.566Z,12.23
2023-04-20T10:54:26.157Z,13.57
2023-04-20T10:55:29.211Z,12.73
2023-04-20T10:56:42.551Z,12.80
2023-04-20T10:57:45.741Z,12.50
2023-04-20T10:58:47.975Z,12.27
2023-04-20T10:59:50.280Z,12.60
2023-04-20T11:01:04.009Z,11.93
2023-04-20T11:02:11.088Z,12.73
2023-04-20T11:03:13.754Z,12.20
2023-04-20T11:04:18.629Z,11.90
2023-04-20T11:05:23.116Z,12.33
2023-04-20T11:06:26.154Z,11.87
2023-04-20T11:07:28.464Z,12.60
2023-04-20T11:08:39.018Z,12.53
2023-04-20T11:09:43.210Z,12.57
2023-04-20T11:10:45.721Z,12.40
2023-04-20T11:12:02.345Z,12.70
2023-04-20T11:13:04.742Z,12.53
2023-04-20T11:14:12.253Z,11.83
2023-04-20T11:15:14.551Z,12.27
2023-04-20T11:16:18.013Z,12.67
2023-04-20T11:17:20.769Z,12.40
2023-04-20T11:18:23.193Z,12.27
2023-04-20T11:19:31.021Z,12.40
2023-04-20T11:20:33.326Z,12.10
2023-04-20T11:21:36.600Z,12.17
2023-04-20T11:22:40.876Z,11.83
2023-04-20T11:23:44.329Z,12.30
2023-04-20T11:24:46.999Z,12.37
2023-04-20T11:25:54.889Z,13.00
2023-04-20T11:26:58.994Z,12.17
2023-04-20T11:28:11.423Z,12.90
2023-04-20T11:29:13.729Z,12.20
2023-04-20T11:30:16.097Z,12.03
2023-04-20T11:31:19.150Z,12.47
2023-04-20T11:32:22.152Z,11.97
2023-04-20T11:33:29.261Z,12.70
2023-04-20T11:34:32.532Z,12.77
2023-04-20T11:35:39.478Z,12.00
2023-04-20T11:36:41.947Z,11.97
2023-04-20T11:37:54.607Z,12.10
2023-04-20T11:39:13.156Z,12.63
2023-04-20T11:40:15.814Z,12.90
2023-04-20T11:41:18.648Z,12.67
2023-04-20T11:42:20.878Z,12.67
2023-04-20T11:43:23.336Z,11.97
2023-04-20T11:44:26.279Z,12.67
2023-04-20T11:45:35.673Z,13.10
2023-04-20T11:46:38.751Z,12.97
2023-04-20T11:47:41.285Z,12.00
2023-04-20T11:48:43.890Z,12.23
2023-04-20T11:49:46.171Z,13.33
2023-04-20T11:50:48.550Z,12.10
2023-04-20T11:51:51.322Z,11.63
2023-04-20T11:52:53.750Z,12.60
2023-04-20T11:53:56.357Z,12.40
2023-04-20T11:54:58.586Z,12.73
2023-04-20T11:56:01.355Z,12.13
2023-04-20T11:57:04.521Z,12.57
2023-04-20T11:58:06.825Z,12.17
2023-04-20T11:59:09.345Z,12.83
2023-04-20T12:00:13.347Z,12.20
2023-04-20T12:01:18.781Z,12.73
2023-04-20T12:02:21.025Z,12.93
2023-04-20T12:03:23.534Z,12.60
2023-04-20T12:04:28.434Z,13.33
2023-04-20T12:05:30.948Z,13.20
2023-04-20T12:06:33.689Z,13.30
2023-04-20T12:07:36.017Z,12.87
2023-04-20T12:08:38.294Z,13.40
2023-04-20T12:09:41.423Z,13.90
2023-04-20T12:10:43.794Z,13.20
2023-04-20T12:11:47.101Z,13.83
2023-04-20T12:12:49.402Z,12.90
2023-04-20T12:13:52.013Z,13.70
2023-04-20T12:14:54.321Z,14.30
2023-04-20T12:15:56.630Z,13.70
2023-04-20T12:17:00.504Z,13.17
2023-04-20T12:18:02.975Z,13.43
2023-04-20T12:19:05.432Z,13.30
2023-04-20T12:20:09.002Z,13.13
2023-04-20T12:21:11.384Z,13.57
2023-04-20T12:22:13.668Z,13.43
2023-04-20T12:23:16.192Z,13.40
2023-04-20T12:24:18.528Z,14.10
2023-04-20T12:25:21.127Z,13.47
2023-04-20T12:26:31.970Z,13.33
2023-04-20T12:27:40.074Z,13.03
2023-04-20T12:28:42.358Z,13.43
2023-04-20T12:29:44.702Z,14.60
2023-04-20T12:30:47.036Z,14.40
2023-04-20T12:31:49.339Z,12.93
2023-04-20T12:32:51.619Z,14.30
2023-04-20T12:33:53.914Z,13.90
2023-04-20T12:34:56.211Z,13.47
2023-04-20T12:35:58.442Z,13.53
2023-04-20T12:37:01.209Z,14.07
2023-04-20T12:38:04.532Z,14.17
2023-04-20T12:39:06.875Z,14.60
2023-04-20T12:40:10.384Z,13.70
2023-04-20T12:41:16.864Z,13.77
2023-04-20T12:42:19.596Z,13.87
2023-04-20T12:43:21.960Z,13.83
2023-04-20T12:44:24.273Z,13.63
2023-04-20T12:45:26.706Z,13.83
2023-04-20T12:46:29.208Z,14.03
2023-04-20T12:47:31.995Z,13.47
2023-04-20T12:48:34.262Z,13.50
2023-04-20T12:49:36.594Z,13.97
2023-04-20T12:50:40.223Z,14.13
2023-04-20T12:51:43.064Z,13.53
2023-04-20T12:52:45.457Z,13.43
2023-04-20T12:53:48.149Z,13.93
2023-04-20T12:54:50.832Z,13.87
2023-04-20T12:56:00.676Z,15.00
2023-04-20T12:57:04.231Z,13.33
2023-04-20T12:58:06.809Z,13.00
2023-04-20T12:59:09.324Z,13.97
2023-04-20T13:00:15.439Z,15.00
2023-04-20T13:01:17.742Z,13.53
2023-04-20T13:02:20.399Z,14.40
2023-04-20T13:03:23.051Z,13.60
2023-04-20T13:04:25.665Z,13.10
2023-04-20T13:05:28.409Z,13.47
2023-04-20T13:06:32.873Z,13.67
2023-04-20T13:07:35.099Z,13.60
2023-04-20T13:08:37.621Z,13.70
2023-04-20T13:09:39.914Z,13.83
2023-04-20T13:10:42.994Z,13.67
2023-04-20T13:11:45.448Z,13.47
2023-04-20T13:12:47.892Z,14.40
2023-04-20T13:13:50.195Z,13.93
2023-04-20T13:14:52.602Z,13.47
2023-04-20T13:15:55.097Z,13.10
2023-04-20T13:16:57.519Z,13.80
2023-04-20T13:18:00.370Z,13.73
2023-04-20T13:19:03.160Z,13.90
2023-04-20T13:20:06.564Z,13.27
2023-04-20T13:21:08.884Z,13.17
2023-04-20T13:22:15.747Z,13.50
2023-04-20T13:23:19.783Z,13.53
2023-04-20T13:24:22.030Z,13.97
2023-04-20T13:25:25.677Z,16.63
2023-04-20T13:26:28.039Z,16.90
2023-04-20T13:27:30.459Z,18.83
2023-04-20T13:28:32.686Z,21.17
2023-04-20T13:29:35.318Z,19.23
2023-04-20T13:30:38.285Z,16.60
2023-04-20T13:31:40.877Z,15.10
2023-04-20T13:32:46.306Z,15.53
2023-04-20T13:33:48.767Z,16.13
2023-04-20T13:34:51.572Z,13.43
2023-04-20T13:35:53.938Z,14.20
2023-04-20T13:36:56.817Z,13.43
2023-04-20T13:37:59.361Z,13.37
2023-04-20T13:39:01.909Z,13.47
2023-04-20T13:40:04.597Z,13.70
2023-04-20T13:41:07.026Z,13.60
2023-04-20T13:42:09.317Z,14.50
2023-04-20T13:43:13.164Z,15.40
2023-04-20T13:44:16.472Z,16.17
2023-04-20T13:45:18.897Z,14.20
2023-04-20T13:46:21.412Z,13.53
2023-04-20T13:47:24.425Z,12.87
2023-04-20T13:48:26.661Z,13.13
2023-04-20T13:49:28.897Z,13.80
2023-04-20T13:50:31.647Z,14.67
2023-04-20T13:51:34.297Z,13.73
2023-04-20T13:52:36.731Z,13.37
2023-04-20T13:53:39.009Z,12.30
2023-04-20T13:54:41.627Z,14.03
2023-04-20T13:55:43.978Z,13.97
2023-04-20T13:56:46.406Z,13.53
2023-04-20T13:57:48.737Z,14.83